sensor_id;sensor_type;location;lat;lon;timestamp;P1;durP1;ratioP1;P2;durP2;ratioP2
9864;SDS011;4971;52.398;9.774;2022-09-12T00:01:56;1.05;;;0.70;;
9864;SDS011;4971;52.398;9.774;2022-09-12T00:04:22;0.65;;;0.52;;
9864;SDS011;4971;52.398;9.774;2022-09-12T00:06:48;0.30;;;0.30;;
9864;SDS011;4971;52.398;9.774;2022-09-12T00:09:14;0.52;;;0.52;;
9864;SDS011;4971;52.398;9.774;2022-09-12T00:11:41;2.50;;;0.98;;
9864;SDS011;4971;52.398;9.774;2022-09-12T00:14:09;0.52;;;0.52;;
9864;SDS011;4971;52.398;9.774;2022-09-12T00:16:36;0.40;;;0.40;;
9864;SDS011;4971;52.398;9.774;2022-09-12T00:19:03;0.30;;;0.30;;
9864;SDS011;4971;52.398;9.774;2022-09-12T00:21:30;0.43;;;0.43;;
9864;SDS011;4971;52.398;9.774;2022-09-12T00:23:57;0.40;;;0.40;;
9864;SDS011;4971;52.398;9.774;2022-09-12T00:26:23;4.90;;;0.60;;
9864;SDS011;4971;52.398;9.774;2022-09-12T00:28:49;0.32;;;0.30;;
9864;SDS011;4971;52.398;9.774;2022-09-12T00:31:16;0.70;;;0.70;;
9864;SDS011;4971;52.398;9.774;2022-09-12T00:33:44;0.50;;;0.50;;
9864;SDS011;4971;52.398;9.774;2022-09-12T00:36:14;0.40;;;0.40;;
9864;SDS011;4971;52.398;9.774;2022-09-12T00:38:42;0.35;;;0.35;;
9864;SDS011;4971;52.398;9.774;2022-09-12T00:41:14;0.52;;;0.32;;
9864;SDS011;4971;52.398;9.774;2022-09-12T00:43:43;0.52;;;0.52;;
9864;SDS011;4971;52.398;9.774;2022-09-12T00:54:32;0.65;;;0.65;;
9864;SDS011;4971;52.398;9.774;2022-09-12T00:57:20;0.47;;;0.30;;
9864;SDS011;4971;52.398;9.774;2022-09-12T00:59:55;0.47;;;0.47;;
9864;SDS011;4971;52.398;9.774;2022-09-12T01:02:38;0.30;;;0.30;;
9864;SDS011;4971;52.398;9.774;2022-09-12T01:05:04;0.65;;;0.55;;
9864;SDS011;4971;52.398;9.774;2022-09-12T01:07:33;0.85;;;0.50;;
9864;SDS011;4971;52.398;9.774;2022-09-12T01:10:00;0.63;;;0.28;;
9864;SDS011;4971;52.398;9.774;2022-09-12T01:12:26;0.50;;;0.50;;
9864;SDS011;4971;52.398;9.774;2022-09-12T01:14:53;0.30;;;0.30;;
9864;SDS011;4971;52.398;9.774;2022-09-12T01:17:19;1.38;;;0.85;;
9864;SDS011;4971;52.398;9.774;2022-09-12T01:19:55;0.28;;;0.28;;
9864;SDS011;4971;52.398;9.774;2022-09-12T01:25:30;0.50;;;0.50;;
9864;SDS011;4971;52.398;9.774;2022-09-12T01:31:11;0.57;;;0.57;;
9864;SDS011;4971;52.398;9.774;2022-09-12T01:33:54;0.70;;;0.70;;
9864;SDS011;4971;52.398;9.774;2022-09-12T01:42:03;0.17;;;0.17;;
9864;SDS011;4971;52.398;9.774;2022-09-12T01:44:45;0.50;;;0.50;;
9864;SDS011;4971;52.398;9.774;2022-09-12T01:47:38;0.13;;;0.13;;
9864;SDS011;4971;52.398;9.774;2022-09-12T01:50:14;0.32;;;0.32;;
9864;SDS011;4971;52.398;9.774;2022-09-12T01:55:28;0.57;;;0.57;;
9864;SDS011;4971;52.398;9.774;2022-09-12T01:58:03;0.38;;;0.32;;
9864;SDS011;4971;52.398;9.774;2022-09-12T02:00:37;0.20;;;0.20;;
9864;SDS011;4971;52.398;9.774;2022-09-12T02:03:13;0.38;;;0.38;;
9864;SDS011;4971;52.398;9.774;2022-09-12T02:05:43;0.28;;;0.28;;
9864;SDS011;4971;52.398;9.774;2022-09-12T02:08:18;0.77;;;0.30;;
9864;SDS011;4971;52.398;9.774;2022-09-12T02:10:54;0.50;;;0.50;;
9864;SDS011;4971;52.398;9.774;2022-09-12T02:15:51;0.30;;;0.30;;
9864;SDS011;4971;52.398;9.774;2022-09-12T02:18:20;0.30;;;0.30;;
9864;SDS011;4971;52.398;9.774;2022-09-12T02:20:49;0.57;;;0.57;;
9864;SDS011;4971;52.398;9.774;2022-09-12T02:23:18;0.35;;;0.35;;
9864;SDS011;4971;52.398;9.774;2022-09-12T02:25:52;0.20;;;0.20;;
9864;SDS011;4971;52.398;9.774;2022-09-12T02:28:25;0.73;;;0.40;;
9864;SDS011;4971;52.398;9.774;2022-09-12T02:31:00;0.20;;;0.20;;
9864;SDS011;4971;52.398;9.774;2022-09-12T02:33:57;0.38;;;0.38;;
9864;SDS011;4971;52.398;9.774;2022-09-12T02:38:59;0.20;;;0.20;;
9864;SDS011;4971;52.398;9.774;2022-09-12T02:41:25;0.30;;;0.30;;
9864;SDS011;4971;52.398;9.774;2022-09-12T02:43:51;0.20;;;0.20;;
9864;SDS011;4971;52.398;9.774;2022-09-12T02:46:23;1.30;;;0.40;;
9864;SDS011;4971;52.398;9.774;2022-09-12T02:48:52;0.40;;;0.40;;
9864;SDS011;4971;52.398;9.774;2022-09-12T02:51:19;0.30;;;0.30;;
9864;SDS011;4971;52.398;9.774;2022-09-12T02:53:45;0.38;;;0.38;;
9864;SDS011;4971;52.398;9.774;2022-09-12T02:56:13;0.57;;;0.57;;
9864;SDS011;4971;52.398;9.774;2022-09-12T02:58:45;0.52;;;0.47;;
9864;SDS011;4971;52.398;9.774;2022-09-12T03:09:34;0.75;;;0.75;;
9864;SDS011;4971;52.398;9.774;2022-09-12T03:17:51;0.20;;;0.20;;
9864;SDS011;4971;52.398;9.774;2022-09-12T03:23:00;0.93;;;0.93;;
9864;SDS011;4971;52.398;9.774;2022-09-12T03:25:37;0.68;;;0.68;;
9864;SDS011;4971;52.398;9.774;2022-09-12T03:28:13;0.47;;;0.43;;
9864;SDS011;4971;52.398;9.774;2022-09-12T03:30:40;0.25;;;0.25;;
9864;SDS011;4971;52.398;9.774;2022-09-12T03:33:12;0.40;;;0.38;;
9864;SDS011;4971;52.398;9.774;2022-09-12T03:35:43;0.77;;;0.77;;
9864;SDS011;4971;52.398;9.774;2022-09-12T03:38:09;0.28;;;0.28;;
9864;SDS011;4971;52.398;9.774;2022-09-12T03:40:36;0.20;;;0.20;;
9864;SDS011;4971;52.398;9.774;2022-09-12T03:43:03;0.60;;;0.60;;
9864;SDS011;4971;52.398;9.774;2022-09-12T03:45:30;0.93;;;0.70;;
9864;SDS011;4971;52.398;9.774;2022-09-12T03:47:56;0.77;;;0.65;;
9864;SDS011;4971;52.398;9.774;2022-09-12T03:50:22;0.50;;;0.50;;
9864;SDS011;4971;52.398;9.774;2022-09-12T03:52:48;0.88;;;0.38;;
9864;SDS011;4971;52.398;9.774;2022-09-12T03:55:14;0.65;;;0.40;;
9864;SDS011;4971;52.398;9.774;2022-09-12T03:57:41;0.25;;;0.25;;
9864;SDS011;4971;52.398;9.774;2022-09-12T04:00:07;0.43;;;0.43;;
9864;SDS011;4971;52.398;9.774;2022-09-12T04:02:34;0.57;;;0.57;;
9864;SDS011;4971;52.398;9.774;2022-09-12T04:05:00;0.38;;;0.38;;
9864;SDS011;4971;52.398;9.774;2022-09-12T04:07:26;0.25;;;0.25;;
9864;SDS011;4971;52.398;9.774;2022-09-12T04:09:52;0.90;;;0.40;;
9864;SDS011;4971;52.398;9.774;2022-09-12T04:12:20;0.50;;;0.50;;
9864;SDS011;4971;52.398;9.774;2022-09-12T04:14:46;0.40;;;0.40;;
9864;SDS011;4971;52.398;9.774;2022-09-12T04:17:13;0.35;;;0.35;;
9864;SDS011;4971;52.398;9.774;2022-09-12T04:19:39;0.22;;;0.22;;
9864;SDS011;4971;52.398;9.774;2022-09-12T04:22:04;0.20;;;0.20;;
9864;SDS011;4971;52.398;9.774;2022-09-12T04:24:33;0.20;;;0.20;;
9864;SDS011;4971;52.398;9.774;2022-09-12T04:27:01;0.30;;;0.30;;
9864;SDS011;4971;52.398;9.774;2022-09-12T04:29:27;0.40;;;0.40;;
9864;SDS011;4971;52.398;9.774;2022-09-12T04:31:55;0.40;;;0.40;;
9864;SDS011;4971;52.398;9.774;2022-09-12T04:34:20;0.40;;;0.40;;
9864;SDS011;4971;52.398;9.774;2022-09-12T04:36:50;0.82;;;0.82;;
9864;SDS011;4971;52.398;9.774;2022-09-12T04:39:15;0.50;;;0.50;;
9864;SDS011;4971;52.398;9.774;2022-09-12T04:41:41;0.32;;;0.32;;
9864;SDS011;4971;52.398;9.774;2022-09-12T04:44:09;0.52;;;0.40;;
9864;SDS011;4971;52.398;9.774;2022-09-12T04:46:40;0.25;;;0.25;;
9864;SDS011;4971;52.398;9.774;2022-09-12T04:49:12;0.30;;;0.30;;
9864;SDS011;4971;52.398;9.774;2022-09-12T04:51:40;0.55;;;0.45;;
9864;SDS011;4971;52.398;9.774;2022-09-12T04:54:10;0.40;;;0.40;;
9864;SDS011;4971;52.398;9.774;2022-09-12T04:56:39;0.30;;;0.30;;
9864;SDS011;4971;52.398;9.774;2022-09-12T04:59:06;0.40;;;0.30;;
9864;SDS011;4971;52.398;9.774;2022-09-12T05:01:32;0.65;;;0.40;;
9864;SDS011;4971;52.398;9.774;2022-09-12T05:03:59;0.40;;;0.40;;
9864;SDS011;4971;52.398;9.774;2022-09-12T05:06:31;0.20;;;0.20;;
9864;SDS011;4971;52.398;9.774;2022-09-12T05:08:59;0.90;;;0.70;;
9864;SDS011;4971;52.398;9.774;2022-09-12T05:11:27;0.40;;;0.40;;
9864;SDS011;4971;52.398;9.774;2022-09-12T05:13:57;0.25;;;0.25;;
9864;SDS011;4971;52.398;9.774;2022-09-12T05:16:23;0.30;;;0.30;;
9864;SDS011;4971;52.398;9.774;2022-09-12T05:18:51;0.45;;;0.45;;
9864;SDS011;4971;52.398;9.774;2022-09-12T05:21:18;0.35;;;0.35;;
9864;SDS011;4971;52.398;9.774;2022-09-12T05:23:45;0.30;;;0.30;;
9864;SDS011;4971;52.398;9.774;2022-09-12T05:26:14;0.20;;;0.20;;
9864;SDS011;4971;52.398;9.774;2022-09-12T05:28:40;0.32;;;0.32;;
9864;SDS011;4971;52.398;9.774;2022-09-12T05:31:10;0.40;;;0.40;;
9864;SDS011;4971;52.398;9.774;2022-09-12T05:33:41;0.38;;;0.38;;
9864;SDS011;4971;52.398;9.774;2022-09-12T05:36:10;1.23;;;0.60;;
9864;SDS011;4971;52.398;9.774;2022-09-12T05:38:37;0.40;;;0.40;;
9864;SDS011;4971;52.398;9.774;2022-09-12T05:43:30;0.50;;;0.50;;
9864;SDS011;4971;52.398;9.774;2022-09-12T05:46:04;0.70;;;0.70;;
9864;SDS011;4971;52.398;9.774;2022-09-12T05:48:37;0.35;;;0.35;;
9864;SDS011;4971;52.398;9.774;2022-09-12T05:51:06;0.65;;;0.60;;
9864;SDS011;4971;52.398;9.774;2022-09-12T05:53:34;0.35;;;0.35;;
9864;SDS011;4971;52.398;9.774;2022-09-12T05:56:05;0.20;;;0.20;;
9864;SDS011;4971;52.398;9.774;2022-09-12T05:58:34;0.60;;;0.60;;
9864;SDS011;4971;52.398;9.774;2022-09-12T06:01:08;0.40;;;0.40;;
9864;SDS011;4971;52.398;9.774;2022-09-12T06:03:40;0.40;;;0.40;;
9864;SDS011;4971;52.398;9.774;2022-09-12T06:06:07;0.30;;;0.30;;
9864;SDS011;4971;52.398;9.774;2022-09-12T06:08:37;0.38;;;0.38;;
9864;SDS011;4971;52.398;9.774;2022-09-12T06:11:04;0.70;;;0.70;;
9864;SDS011;4971;52.398;9.774;2022-09-12T06:13:31;0.50;;;0.50;;
9864;SDS011;4971;52.398;9.774;2022-09-12T06:16:05;1.25;;;0.85;;
9864;SDS011;4971;52.398;9.774;2022-09-12T06:18:35;0.47;;;0.47;;
9864;SDS011;4971;52.398;9.774;2022-09-12T06:23:28;0.82;;;0.82;;
9864;SDS011;4971;52.398;9.774;2022-09-12T06:25:54;0.30;;;0.30;;
9864;SDS011;4971;52.398;9.774;2022-09-12T06:28:20;0.38;;;0.38;;
9864;SDS011;4971;52.398;9.774;2022-09-12T06:30:46;0.57;;;0.57;;
9864;SDS011;4971;52.398;9.774;2022-09-12T06:33:13;0.30;;;0.30;;
9864;SDS011;4971;52.398;9.774;2022-09-12T06:35:39;0.40;;;0.40;;
9864;SDS011;4971;52.398;9.774;2022-09-12T06:38:04;0.50;;;0.50;;
9864;SDS011;4971;52.398;9.774;2022-09-12T06:40:31;0.50;;;0.50;;
9864;SDS011;4971;52.398;9.774;2022-09-12T06:42:57;0.98;;;0.50;;
9864;SDS011;4971;52.398;9.774;2022-09-12T06:45:23;0.50;;;0.50;;
9864;SDS011;4971;52.398;9.774;2022-09-12T06:47:50;0.30;;;0.30;;
9864;SDS011;4971;52.398;9.774;2022-09-12T06:50:16;0.30;;;0.30;;
9864;SDS011;4971;52.398;9.774;2022-09-12T06:52:42;0.68;;;0.68;;
9864;SDS011;4971;52.398;9.774;2022-09-12T06:55:08;0.68;;;0.68;;
9864;SDS011;4971;52.398;9.774;2022-09-12T06:57:34;2.05;;;1.02;;
9864;SDS011;4971;52.398;9.774;2022-09-12T07:00:03;0.63;;;0.63;;
9864;SDS011;4971;52.398;9.774;2022-09-12T07:02:29;0.55;;;0.55;;
9864;SDS011;4971;52.398;9.774;2022-09-12T07:04:55;0.50;;;0.50;;
9864;SDS011;4971;52.398;9.774;2022-09-12T07:07:21;0.82;;;0.80;;
9864;SDS011;4971;52.398;9.774;2022-09-12T07:09:48;0.50;;;0.50;;
9864;SDS011;4971;52.398;9.774;2022-09-12T07:12:14;1.15;;;1.02;;
9864;SDS011;4971;52.398;9.774;2022-09-12T07:14:40;1.13;;;1.02;;
9864;SDS011;4971;52.398;9.774;2022-09-12T07:17:06;0.50;;;0.50;;
9864;SDS011;4971;52.398;9.774;2022-09-12T07:19:35;2.58;;;1.42;;
9864;SDS011;4971;52.398;9.774;2022-09-12T07:22:01;0.88;;;0.88;;
9864;SDS011;4971;52.398;9.774;2022-09-12T07:24:27;0.85;;;0.63;;
9864;SDS011;4971;52.398;9.774;2022-09-12T07:26:56;0.57;;;0.57;;
9864;SDS011;4971;52.398;9.774;2022-09-12T07:29:22;1.02;;;1.02;;
9864;SDS011;4971;52.398;9.774;2022-09-12T07:31:51;1.30;;;1.17;;
9864;SDS011;4971;52.398;9.774;2022-09-12T07:34:16;0.75;;;0.75;;
9864;SDS011;4971;52.398;9.774;2022-09-12T07:36:45;0.95;;;0.70;;
9864;SDS011;4971;52.398;9.774;2022-09-12T07:39:11;5.18;;;0.93;;
9864;SDS011;4971;52.398;9.774;2022-09-12T07:41:36;1.02;;;0.82;;
9864;SDS011;4971;52.398;9.774;2022-09-12T07:44:02;0.55;;;0.55;;
9864;SDS011;4971;52.398;9.774;2022-09-12T07:46:31;2.05;;;0.95;;
9864;SDS011;4971;52.398;9.774;2022-09-12T07:48:59;1.55;;;1.20;;
9864;SDS011;4971;52.398;9.774;2022-09-12T07:51:26;1.10;;;0.90;;
9864;SDS011;4971;52.398;9.774;2022-09-12T07:53:53;1.50;;;1.27;;
9864;SDS011;4971;52.398;9.774;2022-09-12T07:56:20;1.15;;;1.00;;
9864;SDS011;4971;52.398;9.774;2022-09-12T07:58:47;0.65;;;0.65;;
9864;SDS011;4971;52.398;9.774;2022-09-12T08:01:21;1.15;;;0.95;;
9864;SDS011;4971;52.398;9.774;2022-09-12T08:03:48;0.98;;;0.98;;
9864;SDS011;4971;52.398;9.774;2022-09-12T08:06:17;1.20;;;0.90;;
9864;SDS011;4971;52.398;9.774;2022-09-12T08:08:45;1.52;;;1.42;;
9864;SDS011;4971;52.398;9.774;2022-09-12T08:11:11;2.05;;;1.17;;
9864;SDS011;4971;52.398;9.774;2022-09-12T08:13:39;1.63;;;1.00;;
9864;SDS011;4971;52.398;9.774;2022-09-12T08:16:07;1.30;;;0.90;;
9864;SDS011;4971;52.398;9.774;2022-09-12T08:18:37;0.95;;;0.95;;
9864;SDS011;4971;52.398;9.774;2022-09-12T08:21:04;1.08;;;1.02;;
9864;SDS011;4971;52.398;9.774;2022-09-12T08:23:31;1.30;;;1.20;;
9864;SDS011;4971;52.398;9.774;2022-09-12T08:25:58;1.15;;;1.10;;
9864;SDS011;4971;52.398;9.774;2022-09-12T08:28:27;0.77;;;0.77;;
9864;SDS011;4971;52.398;9.774;2022-09-12T08:30:53;1.42;;;0.77;;
9864;SDS011;4971;52.398;9.774;2022-09-12T08:33:20;1.25;;;0.85;;
9864;SDS011;4971;52.398;9.774;2022-09-12T08:35:46;1.50;;;1.23;;
9864;SDS011;4971;52.398;9.774;2022-09-12T08:38:12;1.85;;;1.10;;
9864;SDS011;4971;52.398;9.774;2022-09-12T08:40:42;2.67;;;0.90;;
9864;SDS011;4971;52.398;9.774;2022-09-12T08:44:04;0.73;;;0.73;;
9864;SDS011;4971;52.398;9.774;2022-09-12T08:46:28;0.70;;;0.70;;
9864;SDS011;4971;52.398;9.774;2022-09-12T08:49:11;0.82;;;0.82;;
9864;SDS011;4971;52.398;9.774;2022-09-12T08:51:39;1.85;;;0.90;;
9864;SDS011;4971;52.398;9.774;2022-09-12T08:54:08;0.77;;;0.77;;
9864;SDS011;4971;52.398;9.774;2022-09-12T08:56:44;1.08;;;0.90;;
9864;SDS011;4971;52.398;9.774;2022-09-12T08:59:11;1.02;;;1.00;;
9864;SDS011;4971;52.398;9.774;2022-09-12T09:01:41;1.73;;;1.10;;
9864;SDS011;4971;52.398;9.774;2022-09-12T09:04:18;1.40;;;1.17;;
9864;SDS011;4971;52.398;9.774;2022-09-12T09:15:57;1.60;;;1.50;;
9864;SDS011;4971;52.398;9.774;2022-09-12T09:17:58;1.30;;;1.20;;
9864;SDS011;4971;52.398;9.774;2022-09-12T09:20:38;1.02;;;1.00;;
9864;SDS011;4971;52.398;9.774;2022-09-12T09:26:05;1.75;;;1.35;;
9864;SDS011;4971;52.398;9.774;2022-09-12T09:28:41;1.40;;;1.30;;
9864;SDS011;4971;52.398;9.774;2022-09-12T09:31:14;1.30;;;1.20;;
9864;SDS011;4971;52.398;9.774;2022-09-12T09:33:48;1.02;;;0.93;;
9864;SDS011;4971;52.398;9.774;2022-09-12T09:39:16;1.10;;;1.00;;
9864;SDS011;4971;52.398;9.774;2022-09-12T09:44:37;1.77;;;1.23;;
9864;SDS011;4971;52.398;9.774;2022-09-12T09:47:03;1.15;;;1.05;;
9864;SDS011;4971;52.398;9.774;2022-09-12T09:49:30;1.27;;;1.17;;
9864;SDS011;4971;52.398;9.774;2022-09-12T09:51:58;1.67;;;1.13;;
9864;SDS011;4971;52.398;9.774;2022-09-12T09:54:45;0.88;;;0.88;;
9864;SDS011;4971;52.398;9.774;2022-09-12T09:57:51;1.02;;;0.88;;
9864;SDS011;4971;52.398;9.774;2022-09-12T10:00:27;0.90;;;0.90;;
9864;SDS011;4971;52.398;9.774;2022-09-12T10:03:03;1.20;;;1.10;;
9864;SDS011;4971;52.398;9.774;2022-09-12T10:05:29;1.65;;;1.27;;
9864;SDS011;4971;52.398;9.774;2022-09-12T10:07:56;0.63;;;0.63;;
9864;SDS011;4971;52.398;9.774;2022-09-12T10:10:23;1.05;;;0.90;;
9864;SDS011;4971;52.398;9.774;2022-09-12T10:12:49;1.08;;;1.00;;
9864;SDS011;4971;52.398;9.774;2022-09-12T10:15:24;1.00;;;1.00;;
9864;SDS011;4971;52.398;9.774;2022-09-12T10:17:51;1.10;;;1.10;;
9864;SDS011;4971;52.398;9.774;2022-09-12T10:22:58;1.02;;;0.77;;
9864;SDS011;4971;52.398;9.774;2022-09-12T10:25:27;0.82;;;0.82;;
9864;SDS011;4971;52.398;9.774;2022-09-12T10:27:57;1.42;;;1.25;;
9864;SDS011;4971;52.398;9.774;2022-09-12T10:30:25;0.80;;;0.80;;
9864;SDS011;4971;52.398;9.774;2022-09-12T10:33:04;1.33;;;0.95;;
9864;SDS011;4971;52.398;9.774;2022-09-12T10:35:41;1.05;;;1.05;;
9864;SDS011;4971;52.398;9.774;2022-09-12T10:38:15;1.42;;;0.90;;
9864;SDS011;4971;52.398;9.774;2022-09-12T10:40:53;0.70;;;0.70;;
9864;SDS011;4971;52.398;9.774;2022-09-12T10:43:39;0.80;;;0.80;;
9864;SDS011;4971;52.398;9.774;2022-09-12T10:48:44;0.65;;;0.60;;
9864;SDS011;4971;52.398;9.774;2022-09-12T10:53:48;1.05;;;0.95;;
9864;SDS011;4971;52.398;9.774;2022-09-12T10:56:25;1.30;;;1.13;;
9864;SDS011;4971;52.398;9.774;2022-09-12T11:34:06;0.73;;;0.63;;
9864;SDS011;4971;52.398;9.774;2022-09-12T11:42:05;0.77;;;0.77;;
9864;SDS011;4971;52.398;9.774;2022-09-12T11:44:40;0.88;;;0.88;;
9864;SDS011;4971;52.398;9.774;2022-09-12T11:47:13;0.93;;;0.77;;
9864;SDS011;4971;52.398;9.774;2022-09-12T11:49:49;1.33;;;0.90;;
9864;SDS011;4971;52.398;9.774;2022-09-12T11:52:19;0.80;;;0.80;;
9864;SDS011;4971;52.398;9.774;2022-09-12T12:00:20;0.57;;;0.57;;
9864;SDS011;4971;52.398;9.774;2022-09-12T12:05:24;1.50;;;0.90;;
9864;SDS011;4971;52.398;9.774;2022-09-12T12:07:57;1.10;;;0.75;;
9864;SDS011;4971;52.398;9.774;2022-09-12T12:15:46;0.88;;;0.68;;
9864;SDS011;4971;52.398;9.774;2022-09-12T12:18:16;0.60;;;0.60;;
9864;SDS011;4971;52.398;9.774;2022-09-12T12:21:20;0.70;;;0.70;;
9864;SDS011;4971;52.398;9.774;2022-09-12T12:36:55;1.75;;;0.80;;
9864;SDS011;4971;52.398;9.774;2022-09-12T12:41:56;0.60;;;0.60;;
9864;SDS011;4971;52.398;9.774;2022-09-12T12:47:17;0.63;;;0.63;;
9864;SDS011;4971;52.398;9.774;2022-09-12T12:49:51;0.50;;;0.50;;
9864;SDS011;4971;52.398;9.774;2022-09-12T12:52:21;0.70;;;0.70;;
9864;SDS011;4971;52.398;9.774;2022-09-12T12:54:50;0.60;;;0.60;;
9864;SDS011;4971;52.398;9.774;2022-09-12T13:02:26;0.50;;;0.50;;
9864;SDS011;4971;52.398;9.774;2022-09-12T13:04:56;0.57;;;0.57;;
9864;SDS011;4971;52.398;9.774;2022-09-12T13:07:28;0.73;;;0.73;;
9864;SDS011;4971;52.398;9.774;2022-09-12T13:09:56;0.40;;;0.40;;
9864;SDS011;4971;52.398;9.774;2022-09-12T13:12:25;0.68;;;0.65;;
9864;SDS011;4971;52.398;9.774;2022-09-12T13:14:58;0.70;;;0.70;;
9864;SDS011;4971;52.398;9.774;2022-09-12T13:20:05;0.60;;;0.60;;
9864;SDS011;4971;52.398;9.774;2022-09-12T13:22:45;0.90;;;0.90;;
9864;SDS011;4971;52.398;9.774;2022-09-12T13:25:24;3.28;;;0.85;;
9864;SDS011;4971;52.398;9.774;2022-09-12T13:30:35;1.80;;;0.73;;
9864;SDS011;4971;52.398;9.774;2022-09-12T13:35:58;0.70;;;0.70;;
9864;SDS011;4971;52.398;9.774;2022-09-12T13:44:43;1.10;;;1.00;;
9864;SDS011;4971;52.398;9.774;2022-09-12T13:47:18;0.68;;;0.68;;
9864;SDS011;4971;52.398;9.774;2022-09-12T13:49:52;0.60;;;0.60;;
9864;SDS011;4971;52.398;9.774;2022-09-12T13:52:22;0.80;;;0.80;;
9864;SDS011;4971;52.398;9.774;2022-09-12T13:54:51;0.70;;;0.70;;
9864;SDS011;4971;52.398;9.774;2022-09-12T13:57:30;0.77;;;0.77;;
9864;SDS011;4971;52.398;9.774;2022-09-12T14:02:27;0.50;;;0.50;;
9864;SDS011;4971;52.398;9.774;2022-09-12T14:04:54;0.50;;;0.50;;
9864;SDS011;4971;52.398;9.774;2022-09-12T14:07:39;0.60;;;0.60;;
9864;SDS011;4971;52.398;9.774;2022-09-12T14:10:16;0.93;;;0.70;;
9864;SDS011;4971;52.398;9.774;2022-09-12T14:12:46;0.82;;;0.82;;
9864;SDS011;4971;52.398;9.774;2022-09-12T14:15:18;0.70;;;0.70;;
9864;SDS011;4971;52.398;9.774;2022-09-12T14:17:51;0.52;;;0.52;;
9864;SDS011;4971;52.398;9.774;2022-09-12T14:20:19;0.75;;;0.75;;
9864;SDS011;4971;52.398;9.774;2022-09-12T14:22:47;0.50;;;0.50;;
9864;SDS011;4971;52.398;9.774;2022-09-12T14:25:18;0.60;;;0.60;;
9864;SDS011;4971;52.398;9.774;2022-09-12T14:27:53;0.50;;;0.50;;
9864;SDS011;4971;52.398;9.774;2022-09-12T14:35:34;0.70;;;0.70;;
9864;SDS011;4971;52.398;9.774;2022-09-12T14:40:43;0.55;;;0.55;;
9864;SDS011;4971;52.398;9.774;2022-09-12T14:46:06;0.57;;;0.57;;
9864;SDS011;4971;52.398;9.774;2022-09-12T14:51:33;0.50;;;0.50;;
9864;SDS011;4971;52.398;9.774;2022-09-12T14:54:02;0.68;;;0.68;;
9864;SDS011;4971;52.398;9.774;2022-09-12T14:59:25;0.80;;;0.80;;
9864;SDS011;4971;52.398;9.774;2022-09-12T15:04:38;0.57;;;0.57;;
9864;SDS011;4971;52.398;9.774;2022-09-12T15:10:00;0.57;;;0.57;;
9864;SDS011;4971;52.398;9.774;2022-09-12T15:12:31;0.60;;;0.60;;
9864;SDS011;4971;52.398;9.774;2022-09-12T15:15:12;0.80;;;0.80;;
9864;SDS011;4971;52.398;9.774;2022-09-12T15:17:39;0.70;;;0.70;;
9864;SDS011;4971;52.398;9.774;2022-09-12T15:20:05;0.50;;;0.50;;
9864;SDS011;4971;52.398;9.774;2022-09-12T15:22:31;1.23;;;0.95;;
9864;SDS011;4971;52.398;9.774;2022-09-12T15:24:59;0.57;;;0.57;;
9864;SDS011;4971;52.398;9.774;2022-09-12T15:27:25;0.70;;;0.70;;
9864;SDS011;4971;52.398;9.774;2022-09-12T15:29:51;0.50;;;0.50;;
9864;SDS011;4971;52.398;9.774;2022-09-12T15:32:29;0.63;;;0.63;;
9864;SDS011;4971;52.398;9.774;2022-09-12T15:34:55;0.52;;;0.52;;
9864;SDS011;4971;52.398;9.774;2022-09-12T15:37:22;0.70;;;0.70;;
9864;SDS011;4971;52.398;9.774;2022-09-12T15:39:48;0.50;;;0.50;;
9864;SDS011;4971;52.398;9.774;2022-09-12T15:42:15;1.33;;;0.70;;
9864;SDS011;4971;52.398;9.774;2022-09-12T15:44:42;0.70;;;0.70;;
9864;SDS011;4971;52.398;9.774;2022-09-12T15:47:12;1.45;;;1.00;;
9864;SDS011;4971;52.398;9.774;2022-09-12T15:49:38;0.60;;;0.60;;
9864;SDS011;4971;52.398;9.774;2022-09-12T15:52:05;0.40;;;0.40;;
9864;SDS011;4971;52.398;9.774;2022-09-12T15:54:31;0.70;;;0.70;;
9864;SDS011;4971;52.398;9.774;2022-09-12T15:56:57;0.47;;;0.47;;
9864;SDS011;4971;52.398;9.774;2022-09-12T15:59:23;0.60;;;0.60;;
9864;SDS011;4971;52.398;9.774;2022-09-12T16:01:49;0.60;;;0.60;;
9864;SDS011;4971;52.398;9.774;2022-09-12T16:04:18;0.57;;;0.55;;
9864;SDS011;4971;52.398;9.774;2022-09-12T16:06:52;0.57;;;0.57;;
9864;SDS011;4971;52.398;9.774;2022-09-12T16:09:18;0.45;;;0.45;;
9864;SDS011;4971;52.398;9.774;2022-09-12T16:11:45;0.40;;;0.40;;
9864;SDS011;4971;52.398;9.774;2022-09-12T16:14:14;0.57;;;0.57;;
9864;SDS011;4971;52.398;9.774;2022-09-12T16:16:42;0.40;;;0.40;;
9864;SDS011;4971;52.398;9.774;2022-09-12T16:19:08;0.73;;;0.73;;
9864;SDS011;4971;52.398;9.774;2022-09-12T16:21:36;0.50;;;0.50;;
9864;SDS011;4971;52.398;9.774;2022-09-12T16:24:02;0.60;;;0.60;;
9864;SDS011;4971;52.398;9.774;2022-09-12T16:26:28;2.38;;;0.50;;
9864;SDS011;4971;52.398;9.774;2022-09-12T16:28:54;0.47;;;0.47;;
9864;SDS011;4971;52.398;9.774;2022-09-12T16:31:24;0.70;;;0.70;;
9864;SDS011;4971;52.398;9.774;2022-09-12T16:33:50;0.60;;;0.60;;
9864;SDS011;4971;52.398;9.774;2022-09-12T16:36:18;2.50;;;0.60;;
9864;SDS011;4971;52.398;9.774;2022-09-12T16:41:11;0.60;;;0.60;;
9864;SDS011;4971;52.398;9.774;2022-09-12T16:43:38;0.65;;;0.65;;
9864;SDS011;4971;52.398;9.774;2022-09-12T16:48:31;0.85;;;0.80;;
9864;SDS011;4971;52.398;9.774;2022-09-12T16:50:58;0.50;;;0.50;;
9864;SDS011;4971;52.398;9.774;2022-09-12T16:53:26;0.60;;;0.60;;
9864;SDS011;4971;52.398;9.774;2022-09-12T16:55:55;0.60;;;0.60;;
9864;SDS011;4971;52.398;9.774;2022-09-12T16:58:21;0.50;;;0.50;;
9864;SDS011;4971;52.398;9.774;2022-09-12T17:00:47;0.50;;;0.50;;
9864;SDS011;4971;52.398;9.774;2022-09-12T17:03:13;0.50;;;0.50;;
9864;SDS011;4971;52.398;9.774;2022-09-12T17:05:40;0.70;;;0.70;;
9864;SDS011;4971;52.398;9.774;2022-09-12T17:08:06;0.55;;;0.55;;
9864;SDS011;4971;52.398;9.774;2022-09-12T17:10:33;0.68;;;0.68;;
9864;SDS011;4971;52.398;9.774;2022-09-12T17:12:59;0.95;;;0.70;;
9864;SDS011;4971;52.398;9.774;2022-09-12T17:15:26;0.73;;;0.73;;
9864;SDS011;4971;52.398;9.774;2022-09-12T17:17:52;0.50;;;0.50;;
9864;SDS011;4971;52.398;9.774;2022-09-12T17:20:18;0.68;;;0.68;;
9864;SDS011;4971;52.398;9.774;2022-09-12T17:22:44;0.50;;;0.50;;
9864;SDS011;4971;52.398;9.774;2022-09-12T17:25:09;0.85;;;0.70;;
9864;SDS011;4971;52.398;9.774;2022-09-12T17:27:35;0.65;;;0.65;;
9864;SDS011;4971;52.398;9.774;2022-09-12T17:30:01;0.50;;;0.50;;
9864;SDS011;4971;52.398;9.774;2022-09-12T17:32:28;0.70;;;0.70;;
9864;SDS011;4971;52.398;9.774;2022-09-12T17:34:53;0.40;;;0.40;;
9864;SDS011;4971;52.398;9.774;2022-09-12T17:37:19;0.60;;;0.60;;
9864;SDS011;4971;52.398;9.774;2022-09-12T17:39:45;0.60;;;0.60;;
9864;SDS011;4971;52.398;9.774;2022-09-12T17:42:11;0.47;;;0.47;;
9864;SDS011;4971;52.398;9.774;2022-09-12T17:44:37;0.75;;;0.73;;
9864;SDS011;4971;52.398;9.774;2022-09-12T17:47:03;0.40;;;0.40;;
9864;SDS011;4971;52.398;9.774;2022-09-12T17:49:29;3.45;;;0.50;;
9864;SDS011;4971;52.398;9.774;2022-09-12T17:51:55;0.57;;;0.57;;
9864;SDS011;4971;52.398;9.774;2022-09-12T17:54:22;0.30;;;0.30;;
9864;SDS011;4971;52.398;9.774;2022-09-12T17:56:48;0.40;;;0.40;;
9864;SDS011;4971;52.398;9.774;2022-09-12T17:59:16;0.50;;;0.50;;
9864;SDS011;4971;52.398;9.774;2022-09-12T18:01:48;0.85;;;0.70;;
9864;SDS011;4971;52.398;9.774;2022-09-12T18:04:32;2.10;;;0.60;;
9864;SDS011;4971;52.398;9.774;2022-09-12T18:06:59;0.77;;;0.68;;
9864;SDS011;4971;52.398;9.774;2022-09-12T18:09:25;0.40;;;0.40;;
9864;SDS011;4971;52.398;9.774;2022-09-12T18:11:52;0.30;;;0.30;;
9864;SDS011;4971;52.398;9.774;2022-09-12T18:14:18;0.50;;;0.50;;
9864;SDS011;4971;52.398;9.774;2022-09-12T18:16:45;0.63;;;0.63;;
9864;SDS011;4971;52.398;9.774;2022-09-12T18:19:11;1.60;;;0.50;;
9864;SDS011;4971;52.398;9.774;2022-09-12T18:21:38;0.40;;;0.40;;
9864;SDS011;4971;52.398;9.774;2022-09-12T18:24:04;0.57;;;0.57;;
9864;SDS011;4971;52.398;9.774;2022-09-12T18:26:30;0.50;;;0.50;;
9864;SDS011;4971;52.398;9.774;2022-09-12T18:28:56;0.55;;;0.55;;
9864;SDS011;4971;52.398;9.774;2022-09-12T18:31:23;0.30;;;0.30;;
9864;SDS011;4971;52.398;9.774;2022-09-12T18:33:51;0.30;;;0.30;;
9864;SDS011;4971;52.398;9.774;2022-09-12T18:36:17;0.50;;;0.50;;
9864;SDS011;4971;52.398;9.774;2022-09-12T18:38:44;0.40;;;0.40;;
9864;SDS011;4971;52.398;9.774;2022-09-12T18:41:14;0.95;;;0.88;;
9864;SDS011;4971;52.398;9.774;2022-09-12T18:43:41;0.30;;;0.30;;
9864;SDS011;4971;52.398;9.774;2022-09-12T18:46:12;0.60;;;0.60;;